Time;durP1;ratioP1;P1;durP2;ratioP2;P2;SDS_P1;SDS_P2;PMS_P1;PMS_P2;Temp;Humidity;BMP_temperature;BMP_pressure;BME280_temperature;BME280_humidity;BME280_pressure;Samples;Min_cycle;Max_cycle;Signal;HPM_P1;HPM_P2
2023/04/15 00:00:39;;;;;;;0.10;0.10;;;9.30;99.90;;;;;;5019615;28;20029;-62
2023/04/15 00:03:05;;;;;;;0.10;0.10;;;9.30;99.90;;;;;;5020582;28;20060;-62
2023/04/15 00:05:31;;;;;;;0.08;0.08;;;9.30;99.90;;;;;;5019866;28;20398;-62
2023/04/15 00:07:57;;;;;;;0.00;0.00;;;9.30;99.90;;;;;;5018970;28;20088;-62
2023/04/15 00:10:24;;;;;;;0.10;0.10;;;9.20;99.90;;;;;;5016085;28;20042;-62
2023/04/15 00:12:50;;;;;;;0.10;0.10;;;9.30;99.90;;;;;;5024369;28;20049;-62
2023/04/15 00:15:16;;;;;;;0.10;0.10;;;9.20;99.90;;;;;;5011674;28;20100;-62
2023/04/15 00:17:41;;;;;;;0.00;0.00;;;9.20;99.90;;;;;;5010729;28;20509;-62
2023/04/15 00:20:08;;;;;;;0.08;0.08;;;9.20;99.90;;;;;;5024224;28;20038;-62
2023/04/15 00:22:33;;;;;;;2.38;0.90;;;9.20;99.90;;;;;;5011359;28;20045;-62
2023/04/15 00:24:59;;;;;;;0.13;0.13;;;9.10;99.90;;;;;;5015968;28;20442;-62
2023/04/15 00:27:25;;;;;;;0.10;0.10;;;9.10;99.90;;;;;;5017748;28;20056;-62
2023/04/15 00:29:50;;;;;;;0.35;0.35;;;9.20;99.90;;;;;;5024473;28;20045;-62
2023/04/15 00:32:16;;;;;;;0.30;0.30;;;9.10;99.90;;;;;;5017577;28;20060;-62
2023/04/15 00:34:41;;;;;;;8.77;1.65;;;9.00;99.90;;;;;;5015705;28;20038;-62
2023/04/15 00:37:08;;;;;;;0.00;0.00;;;9.10;99.90;;;;;;5022183;28;20073;-62
2023/04/15 00:39:34;;;;;;;0.55;0.55;;;9.00;99.90;;;;;;5025093;28;20058;-62
2023/04/15 00:42:01;;;;;;;0.20;0.20;;;9.10;99.90;;;;;;5010966;28;20456;-62
2023/04/15 00:44:26;;;;;;;3.42;0.85;;;9.10;99.90;;;;;;5013679;28;20071;-62
2023/04/15 00:46:53;;;;;;;0.20;0.20;;;9.00;99.90;;;;;;5009341;28;20398;-62
2023/04/15 00:49:19;;;;;;;0.68;0.68;;;9.00;99.90;;;;;;5023795;28;20076;-62
2023/04/15 00:51:45;;;;;;;0.63;0.63;;;9.00;99.90;;;;;;5018482;28;20160;-62
2023/04/15 00:54:11;;;;;;;1.80;1.70;;;9.00;99.90;;;;;;5012073;28;20050;-62
2023/04/15 00:56:38;;;;;;;0.30;0.30;;;9.00;99.90;;;;;;5017945;28;20179;-62
2023/04/15 00:59:07;;;;;;;1.45;1.17;;;8.90;99.90;;;;;;5011069;28;20045;-62
2023/04/15 01:01:37;;;;;;;0.10;0.10;;;8.90;99.90;;;;;;5012118;28;21596;-62
2023/04/15 01:04:03;;;;;;;0.00;0.00;;;8.90;99.90;;;;;;5020397;28;20051;-62
2023/04/15 01:06:32;;;;;;;0.40;0.40;;;8.80;99.90;;;;;;5012996;28;20061;-62
2023/04/15 01:08:59;;;;;;;0.20;0.20;;;8.90;99.90;;;;;;5028306;28;20477;-62
2023/04/15 01:11:25;;;;;;;0.63;0.63;;;8.80;99.90;;;;;;5015197;28;20398;-62
2023/04/15 01:13:51;;;;;;;0.52;0.52;;;8.80;99.90;;;;;;5010874;28;20049;-62
2023/04/15 01:16:18;;;;;;;0.13;0.13;;;8.90;99.90;;;;;;5022309;28;20052;-62
2023/04/15 01:18:44;;;;;;;2.35;1.90;;;8.80;99.90;;;;;;5013678;28;20437;-62
2023/04/15 01:21:10;;;;;;;0.00;0.00;;;8.70;99.90;;;;;;5014157;28;20053;-62
2023/04/15 01:23:39;;;;;;;0.90;0.82;;;8.60;99.90;;;;;;5012147;28;20069;-62
2023/04/15 01:26:07;;;;;;;0.20;0.20;;;8.80;99.90;;;;;;5020237;28;20042;-62
2023/04/15 01:28:33;;;;;;;0.75;0.63;;;8.70;99.90;;;;;;5008957;28;20579;-62
2023/04/15 01:31:07;;;;;;;1.65;1.17;;;8.70;99.90;;;;;;5009973;28;20573;-62
2023/04/15 01:33:32;;;;;;;5.95;1.15;;;8.70;99.90;;;;;;5009563;28;20089;-62
2023/04/15 01:35:58;;;;;;;21.73;1.17;;;8.70;99.90;;;;;;5013977;28;20073;-62
2023/04/15 01:38:26;;;;;;;0.10;0.10;;;8.60;99.90;;;;;;5025290;28;20036;-62
2023/04/15 01:40:52;;;;;;;0.10;0.10;;;8.60;99.90;;;;;;5017037;28;20050;-62
2023/04/15 01:43:18;;;;;;;11.38;2.65;;;8.70;99.90;;;;;;5008737;28;20046;-62
2023/04/15 01:45:44;;;;;;;0.10;0.10;;;8.60;99.90;;;;;;5023741;28;20448;-62
2023/04/15 01:48:10;;;;;;;0.57;0.57;;;8.50;99.90;;;;;;5011496;28;20095;-62
2023/04/15 01:50:37;;;;;;;0.10;0.10;;;8.60;99.90;;;;;;5022448;28;20037;-62
2023/04/15 01:53:03;;;;;;;0.60;0.55;;;8.50;99.90;;;;;;5010594;28;20068;-62
2023/04/15 01:55:29;;;;;;;0.10;0.10;;;8.50;99.90;;;;;;5017898;28;20080;-62
2023/04/15 01:57:55;;;;;;;1.17;1.00;;;8.50;99.90;;;;;;5011604;28;20132;-62
2023/04/15 02:00:21;;;;;;;0.73;0.73;;;8.50;99.90;;;;;;5009789;28;20444;-62
2023/04/15 02:02:47;;;;;;;0.40;0.40;;;8.50;99.90;;;;;;5010993;28;20054;-62
2023/04/15 02:05:13;;;;;;;0.13;0.13;;;8.40;99.90;;;;;;5012414;28;20548;-62
2023/04/15 02:07:39;;;;;;;0.10;0.10;;;8.40;99.90;;;;;;5020466;28;20490;-62
2023/04/15 02:10:05;;;;;;;0.50;0.50;;;8.40;99.90;;;;;;5019815;28;20223;-62
2023/04/15 02:12:30;;;;;;;0.20;0.20;;;8.40;99.90;;;;;;5015509;28;20041;-62
2023/04/15 02:14:56;;;;;;;0.20;0.20;;;8.30;99.90;;;;;;5017968;28;20524;-62
2023/04/15 02:17:21;;;;;;;0.10;0.10;;;8.30;99.90;;;;;;5018368;28;20054;-62
2023/04/15 02:19:47;;;;;;;0.28;0.28;;;8.30;99.90;;;;;;5016336;28;20125;-62
2023/04/15 02:22:17;;;;;;;1.00;0.80;;;8.20;99.90;;;;;;5017556;28;20091;-62
2023/04/15 02:24:43;;;;;;;0.38;0.38;;;8.30;99.90;;;;;;5012665;28;20502;-62
2023/04/15 02:27:08;;;;;;;1.08;0.82;;;8.30;99.90;;;;;;5014254;28;20045;-62
2023/04/15 02:29:34;;;;;;;0.20;0.20;;;8.30;99.90;;;;;;5028193;28;20042;-62
2023/04/15 02:32:00;;;;;;;0.10;0.10;;;8.20;99.90;;;;;;5019959;28;20038;-62
2023/04/15 02:34:26;;;;;;;0.30;0.30;;;8.20;99.90;;;;;;5016260;28;20448;-62
2023/04/15 02:36:56;;;;;;;3.10;0.73;;;8.20;99.90;;;;;;5021284;28;20057;-62
2023/04/15 02:39:21;;;;;;;0.35;0.35;;;8.20;99.90;;;;;;5013342;28;20054;-62
2023/04/15 02:41:50;;;;;;;1.40;1.30;;;8.20;99.90;;;;;;5022713;28;20088;-62
2023/04/15 02:44:19;;;;;;;0.10;0.10;;;8.20;99.90;;;;;;5019776;28;20045;-62
2023/04/15 02:46:49;;;;;;;0.22;0.22;;;8.20;99.90;;;;;;5016293;28;20498;-62
2023/04/15 02:49:15;;;;;;;0.10;0.10;;;8.20;99.90;;;;;;5022642;28;20096;-62
2023/04/15 02:51:41;;;;;;;0.25;0.25;;;8.10;99.90;;;;;;5020729;28;20049;-62
2023/04/15 02:54:07;;;;;;;0.50;0.50;;;8.10;99.90;;;;;;5018041;28;20053;-62
2023/04/15 02:56:33;;;;;;;0.10;0.10;;;8.10;99.90;;;;;;5013557;28;20092;-62
2023/04/15 02:58:59;;;;;;;0.47;0.47;;;8.10;99.90;;;;;;5013294;28;20540;-62
2023/04/15 03:01:25;;;;;;;0.77;0.77;;;8.10;99.90;;;;;;5011888;28;20085;-62
2023/04/15 03:03:50;;;;;;;0.32;0.32;;;8.10;99.90;;;;;;5018423;28;20042;-62
2023/04/15 03:06:16;;;;;;;0.00;0.00;;;8.10;99.90;;;;;;5014527;28;20045;-62
2023/04/15 03:08:42;;;;;;;1.70;1.60;;;8.00;99.90;;;;;;5017103;28;20041;-62
2023/04/15 03:11:07;;;;;;;0.10;0.10;;;8.10;99.90;;;;;;5013485;28;20046;-62
2023/04/15 03:13:33;;;;;;;0.32;0.32;;;8.10;99.90;;;;;;5025382;28;20054;-62
2023/04/15 03:15:58;;;;;;;0.55;0.55;;;8.00;99.90;;;;;;5016553;28;20490;-62
2023/04/15 03:18:24;;;;;;;0.65;0.65;;;8.10;99.90;;;;;;5019909;28;20050;-63
2023/04/15 03:20:50;;;;;;;0.10;0.10;;;8.00;99.90;;;;;;5017872;28;20065;-62
2023/04/15 03:23:16;;;;;;;0.10;0.10;;;8.00;99.90;;;;;;5012641;28;20049;-62
2023/04/15 03:25:41;;;;;;;0.00;0.00;;;8.10;99.90;;;;;;5037487;28;20030;-62
2023/04/15 03:28:07;;;;;;;0.20;0.20;;;8.00;99.90;;;;;;5010827;28;20687;-62
2023/04/15 03:30:32;;;;;;;0.10;0.10;;;8.00;99.90;;;;;;5014462;28;20060;-62
2023/04/15 03:32:58;;;;;;;0.10;0.10;;;7.90;99.90;;;;;;5013346;28;20062;-62
2023/04/15 03:35:24;;;;;;;0.40;0.40;;;7.90;99.90;;;;;;5017887;28;20049;-62
2023/04/15 03:37:49;;;;;;;0.65;0.65;;;7.90;99.90;;;;;;5027056;28;20088;-63
2023/04/15 03:40:15;;;;;;;1.02;0.75;;;7.90;99.90;;;;;;5014447;28;20579;-63
2023/04/15 03:42:41;;;;;;;0.40;0.40;;;7.90;99.90;;;;;;5011661;28;20508;-63
2023/04/15 03:45:07;;;;;;;4.80;0.90;;;7.90;99.90;;;;;;5024787;28;20056;-63
2023/04/15 03:47:32;;;;;;;0.47;0.47;;;7.80;99.90;;;;;;5014389;28;21634;-63
2023/04/15 03:49:58;;;;;;;0.32;0.32;;;7.80;99.90;;;;;;5022886;28;20071;-62
2023/04/15 03:52:24;;;;;;;0.40;0.40;;;7.80;99.90;;;;;;5012281;28;20049;-62
2023/04/15 03:54:50;;;;;;;0.40;0.40;;;7.70;99.90;;;;;;5015544;28;20124;-62
2023/04/15 03:57:15;;;;;;;1.25;0.82;;;7.70;99.90;;;;;;5018393;28;20501;-63
2023/04/15 03:59:41;;;;;;;0.47;0.47;;;7.60;99.90;;;;;;5023874;28;20041;-63
2023/04/15 04:02:07;;;;;;;0.50;0.50;;;7.60;99.90;;;;;;5010744;28;20049;-63
2023/04/15 04:04:32;;;;;;;0.10;0.10;;;7.60;99.90;;;;;;5021114;28;20042;-63
2023/04/15 04:06:58;;;;;;;9.52;2.22;;;7.60;99.90;;;;;;5022044;28;20169;-62
2023/04/15 04:09:23;;;;;;;3.20;0.98;;;7.60;99.90;;;;;;5017373;28;20049;-63
2023/04/15 04:11:49;;;;;;;0.55;0.55;;;7.50;99.90;;;;;;5010418;28;20034;-63
2023/04/15 04:14:15;;;;;;;0.22;0.22;;;7.50;99.90;;;;;;5014981;28;20042;-63
2023/04/15 04:16:40;;;;;;;0.45;0.43;;;7.50;99.90;;;;;;5020795;28;20046;-63
2023/04/15 04:19:06;;;;;;;0.52;0.52;;;7.50;99.90;;;;;;5017563;28;21168;-63
2023/04/15 04:21:33;;;;;;;0.15;0.15;;;7.40;99.90;;;;;;5018249;28;20072;-63
2023/04/15 04:23:58;;;;;;;0.65;0.65;;;7.40;99.90;;;;;;5012009;28;20045;-62
2023/04/15 04:26:24;;;;;;;0.00;0.00;;;7.40;99.90;;;;;;5013194;28;20401;-63
2023/04/15 04:28:50;;;;;;;0.63;0.63;;;7.40;99.90;;;;;;5019276;28;20143;-63
2023/04/15 04:31:16;;;;;;;0.10;0.10;;;7.40;99.90;;;;;;5009845;28;20100;-63
2023/04/15 04:33:41;;;;;;;1.55;1.17;;;7.40;99.90;;;;;;5010934;28;20077;-63
2023/04/15 04:36:07;;;;;;;1.05;1.05;;;7.40;99.90;;;;;;5018193;28;20048;-62
2023/04/15 04:38:33;;;;;;;0.45;0.45;;;7.50;99.90;;;;;;5024417;28;20041;-62
2023/04/15 04:40:58;;;;;;;1.95;1.15;;;7.40;99.90;;;;;;5014461;28;20030;-62
2023/04/15 04:43:24;;;;;;;0.10;0.10;;;7.40;99.90;;;;;;5016099;28;20050;-63
2023/04/15 04:45:50;;;;;;;0.00;0.00;;;7.40;99.90;;;;;;5022793;28;20042;-63
2023/04/15 04:48:16;;;;;;;0.47;0.47;;;7.40;99.90;;;;;;5012220;28;20046;-62
2023/04/15 04:50:42;;;;;;;0.15;0.15;;;7.40;99.90;;;;;;5024760;28;20072;-63
2023/04/15 04:53:07;;;;;;;0.20;0.20;;;7.50;99.90;;;;;;5016544;28;20041;-63
2023/04/15 04:55:35;;;;;;;0.93;0.75;;;7.50;99.90;;;;;;5016067;28;20044;-63
2023/04/15 04:58:01;;;;;;;0.38;0.38;;;7.40;99.90;;;;;;5025764;28;20088;-63
2023/04/15 05:00:27;;;;;;;0.10;0.10;;;7.40;99.90;;;;;;5022846;28;20068;-63
2023/04/15 05:02:53;;;;;;;0.10;0.10;;;7.40;99.90;;;;;;5018406;28;20067;-63
2023/04/15 05:05:19;;;;;;;0.05;0.05;;;7.40;99.90;;;;;;5010037;28;20049;-62
2023/04/15 05:07:45;;;;;;;1.30;1.20;;;7.40;99.90;;;;;;5012048;28;20513;-63
2023/04/15 05:10:10;;;;;;;0.10;0.10;;;7.40;99.90;;;;;;5018023;28;20049;-63
2023/04/15 05:12:37;;;;;;;0.55;0.55;;;7.40;99.90;;;;;;5013182;28;20049;-63
2023/04/15 05:15:04;;;;;;;0.10;0.10;;;7.40;99.90;;;;;;5010075;28;20046;-63
2023/04/15 05:17:30;;;;;;;0.15;0.15;;;7.40;99.90;;;;;;5010431;28;20053;-63
2023/04/15 05:19:56;;;;;;;0.10;0.10;;;7.50;99.90;;;;;;5010820;28;20072;-63
2023/04/15 05:22:21;;;;;;;0.40;0.40;;;7.40;99.90;;;;;;5013835;28;20050;-63
2023/04/15 05:24:47;;;;;;;1.15;0.82;;;7.40;99.90;;;;;;5012890;28;20779;-62
2023/04/15 05:27:13;;;;;;;0.65;0.65;;;7.40;99.90;;;;;;5022029;28;20076;-63
2023/04/15 05:29:38;;;;;;;0.25;0.25;;;7.40;99.90;;;;;;5011452;28;20402;-62
2023/04/15 05:32:04;;;;;;;0.65;0.65;;;7.50;99.90;;;;;;5015851;28;20037;-62
2023/04/15 05:34:30;;;;;;;0.63;0.63;;;7.50;99.90;;;;;;5012412;28;20034;-62
2023/04/15 05:36:55;;;;;;;0.30;0.30;;;7.50;99.90;;;;;;5020680;28;20046;-62
2023/04/15 05:39:21;;;;;;;0.10;0.10;;;7.60;99.90;;;;;;5016304;28;20045;-63
2023/04/15 05:41:47;;;;;;;0.10;0.10;;;7.50;99.90;;;;;;5014870;28;20076;-62
2023/04/15 05:44:12;;;;;;;0.38;0.38;;;7.60;99.90;;;;;;5020218;28;20049;-62
2023/04/15 05:46:38;;;;;;;1.25;1.17;;;7.60;99.90;;;;;;5014830;28;20384;-62
2023/04/15 05:49:03;;;;;;;0.10;0.10;;;7.60;99.90;;;;;;5024154;28;20481;-62
2023/04/15 05:51:29;;;;;;;0.40;0.40;;;7.70;99.90;;;;;;5014991;28;20516;-63
2023/04/15 05:53:54;;;;;;;1.02;0.52;;;7.60;99.90;;;;;;5013256;28;20041;-62
2023/04/15 05:56:21;;;;;;;0.55;0.55;;;7.70;99.90;;;;;;5012702;28;20045;-62
2023/04/15 05:58:46;;;;;;;1.17;1.15;;;7.80;99.90;;;;;;5012273;28;20088;-62
2023/04/15 06:01:12;;;;;;;0.45;0.45;;;7.80;99.90;;;;;;5014312;28;20124;-62
2023/04/15 06:03:38;;;;;;;0.43;0.43;;;7.90;99.90;;;;;;5043052;28;20045;-62
2023/04/15 06:06:04;;;;;;;0.30;0.30;;;7.90;99.90;;;;;;5011067;28;20057;-62
2023/04/15 06:08:29;;;;;;;0.10;0.10;;;8.00;99.90;;;;;;5025100;28;20036;-63
2023/04/15 06:10:55;;;;;;;0.30;0.30;;;8.10;99.90;;;;;;5017119;28;20078;-62
2023/04/15 06:13:20;;;;;;;0.28;0.28;;;8.10;99.90;;;;;;5017761;28;20060;-62
2023/04/15 06:15:46;;;;;;;0.00;0.00;;;8.20;99.90;;;;;;5022665;28;20394;-62
2023/04/15 06:18:12;;;;;;;0.25;0.25;;;8.20;99.90;;;;;;5022827;28;20063;-62
2023/04/15 06:20:37;;;;;;;0.10;0.10;;;8.30;99.90;;;;;;5018893;28;20034;-62
2023/04/15 06:23:03;;;;;;;0.10;0.10;;;8.40;99.90;;;;;;5024601;28;20425;-62
2023/04/15 06:25:28;;;;;;;0.47;0.47;;;8.50;99.90;;;;;;5014339;28;20048;-62
2023/04/15 06:27:54;;;;;;;0.10;0.10;;;8.60;99.90;;;;;;5011200;28;20077;-63
2023/04/15 06:30:20;;;;;;;0.10;0.10;;;8.70;99.90;;;;;;5011755;28;20077;-62
2023/04/15 06:32:46;;;;;;;0.52;0.52;;;8.80;99.90;;;;;;5012232;28;20508;-62
2023/04/15 06:35:11;;;;;;;0.10;0.10;;;8.90;99.90;;;;;;5009486;28;20100;-62
2023/04/15 06:37:37;;;;;;;0.10;0.10;;;9.00;99.90;;;;;;5010286;28;20038;-62
2023/04/15 06:40:03;;;;;;;0.20;0.20;;;9.00;99.90;;;;;;5009912;28;20050;-63
2023/04/15 06:42:29;;;;;;;0.10;0.10;;;9.10;99.90;;;;;;5015533;28;20078;-62
2023/04/15 06:44:55;;;;;;;0.75;0.75;;;9.20;99.90;;;;;;5009747;28;20073;-62
2023/04/15 06:47:21;;;;;;;0.15;0.15;;;9.20;99.90;;;;;;5018146;28;20037;-62
2023/04/15 06:49:46;;;;;;;0.10;0.10;;;9.20;99.90;;;;;;5019110;28;21064;-62
2023/04/15 06:52:12;;;;;;;0.10;0.10;;;9.30;99.90;;;;;;5018817;28;20050;-62
2023/04/15 06:54:38;;;;;;;0.38;0.38;;;9.30;99.90;;;;;;5012630;28;20477;-62
2023/04/15 06:57:03;;;;;;;0.30;0.30;;;9.30;99.90;;;;;;5016400;28;20075;-62
2023/04/15 06:59:29;;;;;;;0.00;0.00;;;9.40;99.90;;;;;;5007245;28;20050;-62
2023/04/15 07:01:54;;;;;;;0.70;0.70;;;9.40;99.90;;;;;;5015390;28;20044;-62
2023/04/15 07:04:20;;;;;;;0.10;0.10;;;9.40;99.90;;;;;;5022893;28;20485;-62
2023/04/15 07:06:45;;;;;;;0.30;0.30;;;9.50;99.90;;;;;;5015281;28;20497;-63
2023/04/15 07:09:11;;;;;;;0.10;0.10;;;9.60;99.90;;;;;;5027101;28;20156;-63
2023/04/15 07:11:37;;;;;;;0.10;0.10;;;9.60;99.90;;;;;;5013254;28;20053;-62
2023/04/15 07:14:02;;;;;;;0.63;0.63;;;9.70;99.90;;;;;;5012533;28;20378;-62
2023/04/15 07:16:28;;;;;;;0.45;0.45;;;9.80;99.90;;;;;;5015132;28;20474;-62
2023/04/15 07:18:54;;;;;;;0.65;0.65;;;9.80;99.90;;;;;;5025913;28;20045;-62
2023/04/15 07:21:20;;;;;;;1.02;0.98;;;9.90;99.90;;;;;;5029928;28;20169;-62
2023/04/15 07:23:46;;;;;;;0.17;0.17;;;9.90;99.90;;;;;;5020610;28;20132;-62
2023/04/15 07:26:11;;;;;;;1.17;0.80;;;10.00;99.90;;;;;;5015730;28;20045;-62
2023/04/15 07:28:37;;;;;;;0.20;0.20;;;10.00;99.90;;;;;;5011793;28;20072;-62
2023/04/15 07:31:03;;;;;;;1.48;0.63;;;10.10;99.90;;;;;;5020593;28;20049;-62
2023/04/15 07:33:28;;;;;;;0.10;0.10;;;10.20;99.90;;;;;;5026048;28;20386;-62
2023/04/15 07:35:54;;;;;;;0.43;0.43;;;10.30;99.90;;;;;;5016925;28;20366;-62
2023/04/15 07:38:21;;;;;;;0.98;0.40;;;10.40;99.90;;;;;;5028969;28;20125;-62
2023/04/15 07:40:47;;;;;;;0.30;0.30;;;10.60;99.90;;;;;;5019821;28;20255;-62
2023/04/15 07:43:13;;;;;;;0.20;0.20;;;10.70;99.90;;;;;;5016115;28;20060;-62
2023/04/15 07:45:38;;;;;;;0.10;0.10;;;10.80;99.90;;;;;;5020582;28;20038;-62
2023/04/15 07:48:05;;;;;;;0.20;0.20;;;10.80;99.90;;;;;;5012546;28;20076;-62
2023/04/15 07:50:31;;;;;;;0.40;0.40;;;11.00;99.90;;;;;;5025992;28;20050;-63
2023/04/15 07:52:57;;;;;;;0.10;0.10;;;11.00;99.90;;;;;;5026138;28;20046;-62
2023/04/15 07:55:22;;;;;;;0.40;0.40;;;11.00;99.90;;;;;;5012639;28;20041;-62
2023/04/15 07:57:49;;;;;;;0.20;0.20;;;11.10;99.90;;;;;;5019459;28;20501;-63
2023/04/15 08:00:15;;;;;;;0.10;0.10;;;11.10;99.90;;;;;;5028898;28;20532;-63
2023/04/15 08:02:42;;;;;;;1.45;1.17;;;11.20;99.90;;;;;;5026399;28;20037;-63
2023/04/15 08:05:12;;;;;;;0.10;0.10;;;11.20;99.90;;;;;;5016595;28;20069;-63
2023/04/15 08:07:38;;;;;;;0.10;0.10;;;11.20;99.90;;;;;;5014075;28;20061;-63
2023/04/15 08:10:05;;;;;;;3.45;1.58;;;11.10;99.90;;;;;;5018848;28;20041;-63
2023/04/15 08:12:30;;;;;;;0.30;0.30;;;11.10;99.90;;;;;;5011554;28;20073;-63
2023/04/15 08:14:56;;;;;;;0.10;0.10;;;11.10;99.90;;;;;;5012628;28;20140;-62
2023/04/15 08:17:22;;;;;;;0.10;0.10;;;11.10;99.90;;;;;;5012820;28;20105;-63
2023/04/15 08:19:48;;;;;;;7.43;0.65;;;11.10;99.90;;;;;;5030067;28;20082;-63
2023/04/15 08:22:14;;;;;;;0.10;0.10;;;11.20;99.90;;;;;;5029173;28;20504;-62
2023/04/15 08:24:40;;;;;;;0.00;0.00;;;11.20;99.90;;;;;;5018457;28;20516;-62
2023/04/15 08:27:06;;;;;;;0.10;0.10;;;11.20;99.90;;;;;;5012785;28;20034;-62
2023/04/15 08:29:33;;;;;;;0.30;0.30;;;11.20;99.90;;;;;;5010985;28;20076;-63
2023/04/15 08:31:59;;;;;;;1.90;1.80;;;11.20;99.90;;;;;;5017236;28;20048;-62
2023/04/15 08:34:25;;;;;;;0.95;0.90;;;11.20;99.90;;;;;;5020670;28;20847;-63
2023/04/15 08:36:50;;;;;;;0.50;0.22;;;11.30;99.90;;;;;;5019563;28;20037;-63
2023/04/15 08:39:17;;;;;;;0.30;0.30;;;11.40;99.90;;;;;;5014406;28;20518;-63
2023/04/15 08:42:02;;;;;;;1.27;0.45;;;11.40;99.90;;;;;;5012696;28;20398;-63
2023/04/15 08:44:33;;;;;;;0.10;0.10;;;11.50;99.90;;;;;;5014112;28;20092;-63
2023/04/15 08:47:06;;;;;;;0.77;0.77;;;11.50;99.90;;;;;;5023016;28;20053;-63
2023/04/15 08:49:34;;;;;;;0.00;0.00;;;11.60;99.90;;;;;;5015985;28;20053;-63
2023/04/15 08:52:01;;;;;;;0.10;0.10;;;11.50;99.90;;;;;;5010558;28;20097;-63
2023/04/15 08:54:28;;;;;;;0.10;0.10;;;11.60;99.90;;;;;;5014530;28;20415;-63
2023/04/15 08:56:53;;;;;;;0.47;0.47;;;11.60;99.90;;;;;;5020844;28;20044;-63
2023/04/15 08:59:20;;;;;;;1.55;0.65;;;11.50;99.90;;;;;;5015126;28;20053;-63
2023/04/15 09:01:47;;;;;;;0.85;0.57;;;11.60;99.90;;;;;;5018185;28;20054;-63
2023/04/15 09:04:13;;;;;;;0.60;0.60;;;11.50;99.90;;;;;;5015140;28;20042;-63
2023/04/15 09:06:40;;;;;;;1.00;0.93;;;11.50;99.90;;;;;;5015182;28;20038;-63
2023/04/15 09:09:05;;;;;;;0.10;0.10;;;11.30;99.90;;;;;;5023203;28;20045;-63
2023/04/15 09:11:31;;;;;;;3.20;1.13;;;11.20;99.90;;;;;;5022417;28;20049;-63
2023/04/15 09:13:57;;;;;;;0.13;0.13;;;11.30;99.90;;;;;;5014555;28;20129;-62
2023/04/15 09:16:23;;;;;;;0.15;0.15;;;11.20;99.90;;;;;;5012199;28;20421;-63
2023/04/15 09:18:48;;;;;;;0.10;0.10;;;11.10;99.90;;;;;;5017191;28;20401;-63
2023/04/15 09:21:16;;;;;;;0.10;0.10;;;11.10;99.90;;;;;;5017499;28;20044;-63
2023/04/15 09:23:53;;;;;;;0.08;0.08;;;11.10;99.90;;;;;;5015301;28;20046;-63
2023/04/15 09:26:29;;;;;;;0.20;0.20;;;11.20;99.90;;;;;;5013486;28;20037;-62
2023/04/15 09:29:08;;;;;;;0.10;0.10;;;11.40;99.90;;;;;;5018646;28;20095;-62
2023/04/15 09:31:37;;;;;;;0.10;0.10;;;11.50;99.90;;;;;;5015461;28;20128;-62
2023/04/15 09:34:03;;;;;;;0.63;0.63;;;11.90;99.90;;;;;;5019015;28;20179;-62
2023/04/15 09:36:35;;;;;;;0.10;0.10;;;12.10;99.90;;;;;;5010753;28;20052;-63
2023/04/15 09:39:01;;;;;;;0.10;0.10;;;12.20;99.90;;;;;;5017093;28;20076;-62
2023/04/15 09:41:27;;;;;;;0.03;0.03;;;12.30;99.90;;;;;;5022965;28;20130;-63
2023/04/15 09:43:53;;;;;;;0.10;0.10;;;12.30;99.90;;;;;;5010568;28;20486;-63
2023/04/15 09:46:18;;;;;;;0.75;0.75;;;12.40;99.90;;;;;;5018249;28;20060;-63
2023/04/15 09:48:44;;;;;;;0.10;0.10;;;12.40;99.90;;;;;;5019364;28;20061;-62
2023/04/15 09:51:10;;;;;;;0.10;0.10;;;12.70;99.90;;;;;;5010384;28;20700;-63
2023/04/15 09:53:37;;;;;;;0.22;0.22;;;12.90;99.90;;;;;;5021676;28;20037;-63
2023/04/15 09:56:06;;;;;;;0.43;0.43;;;12.80;99.90;;;;;;5009104;28;20053;-63
2023/04/15 09:58:33;;;;;;;0.10;0.10;;;12.50;99.90;;;;;;5013692;28;20045;-62
2023/04/15 10:01:01;;;;;;;0.40;0.40;;;12.60;99.90;;;;;;5024109;28;20045;-63
2023/04/15 10:03:29;;;;;;;0.05;0.05;;;12.60;99.90;;;;;;5011672;28;20541;-63
2023/04/15 10:05:58;;;;;;;0.40;0.40;;;12.70;99.90;;;;;;5013583;28;20052;-63
2023/04/15 10:08:26;;;;;;;0.15;0.15;;;12.60;99.90;;;;;;5013333;28;20787;-63
2023/04/15 10:10:52;;;;;;;0.05;0.05;;;12.50;99.90;;;;;;5015073;28;20530;-63
2023/04/15 10:13:21;;;;;;;0.10;0.10;;;12.50;99.90;;;;;;5015210;28;20152;-63
2023/04/15 10:15:52;;;;;;;0.10;0.10;;;12.60;99.90;;;;;;5014991;28;20030;-62
2023/04/15 10:18:20;;;;;;;0.20;0.20;;;13.00;99.90;;;;;;5017850;28;20040;-63
2023/04/15 10:20:47;;;;;;;0.52;0.52;;;13.20;99.90;;;;;;5009254;28;20037;-63
2023/04/15 10:23:14;;;;;;;0.90;0.55;;;13.40;99.90;;;;;;5016094;28;20042;-63
2023/04/15 10:25:40;;;;;;;0.00;0.00;;;13.10;99.90;;;;;;5015116;28;20093;-62
2023/04/15 10:28:07;;;;;;;0.10;0.10;;;12.70;99.90;;;;;;5011327;28;20453;-63
2023/04/15 10:30:33;;;;;;;0.00;0.00;;;12.60;99.90;;;;;;5013143;28;20452;-63
2023/04/15 10:33:01;;;;;;;0.43;0.43;;;13.10;99.90;;;;;;5020123;28;20442;-62
2023/04/15 10:35:29;;;;;;;0.10;0.10;;;13.30;99.90;;;;;;5015179;28;20050;-62
2023/04/15 10:37:55;;;;;;;0.10;0.10;;;13.10;99.90;;;;;;5014351;28;20498;-62
2023/04/15 10:40:28;;;;;;;0.10;0.10;;;12.80;99.90;;;;;;5021522;28;20045;-63
2023/04/15 10:43:01;;;;;;;0.03;0.03;;;12.80;99.90;;;;;;5033143;28;20056;-63
2023/04/15 10:45:36;;;;;;;0.00;0.00;;;12.70;99.90;;;;;;5015055;28;20087;-62
2023/04/15 10:48:03;;;;;;;0.00;0.00;;;12.70;99.90;;;;;;5015828;28;20046;-62
2023/04/15 10:50:32;;;;;;;0.10;0.10;;;13.20;99.90;;;;;;5019730;28;20498;-62
2023/04/15 10:53:01;;;;;;;0.10;0.10;;;13.00;99.90;;;;;;5013450;28;20048;-62
2023/04/15 10:55:31;;;;;;;0.20;0.20;;;12.90;99.90;;;;;;5015761;28;20116;-62
2023/04/15 10:58:01;;;;;;;0.10;0.10;;;13.10;99.90;;;;;;5025308;28;20099;-62
2023/04/15 11:00:31;;;;;;;0.10;0.10;;;13.00;99.90;;;;;;5012947;28;20038;-63
2023/04/15 11:03:04;;;;;;;0.10;0.10;;;12.90;99.90;;;;;;5015687;28;20057;-62
2023/04/15 11:05:41;;;;;;;0.07;0.07;;;12.90;99.90;;;;;;5020208;28;20425;-62
2023/04/15 11:08:08;;;;;;;0.20;0.20;;;12.70;99.90;;;;;;5013670;28;20050;-62
2023/04/15 11:10:33;;;;;;;0.00;0.00;;;12.60;99.90;;;;;;5020900;28;20374;-62
2023/04/15 11:13:24;;;;;;;0.10;0.10;;;12.40;99.90;;;;;;5015989;28;20040;-62
2023/04/15 11:15:50;;;;;;;0.00;0.00;;;12.30;99.90;;;;;;5023823;28;20057;-62
2023/04/15 11:18:27;;;;;;;0.00;0.00;;;12.10;99.90;;;;;;5017181;28;20068;-62
2023/04/15 11:20:58;;;;;;;0.10;0.10;;;12.10;99.90;;;;;;5023488;28;20049;-62
2023/04/15 11:23:33;;;;;;;0.10;0.10;;;11.80;99.90;;;;;;5022892;28;20136;-62
2023/04/15 11:26:00;;;;;;;0.10;0.10;;;11.70;99.90;;;;;;5018043;28;20049;-62
2023/04/15 11:28:27;;;;;;;13.60;1.17;;;11.70;99.90;;;;;;5012596;28;20042;-62
2023/04/15 11:30:54;;;;;;;0.10;0.10;;;11.70;99.90;;;;;;5019503;28;20101;-63
2023/04/15 11:33:21;;;;;;;0.10;0.10;;;11.70;99.90;;;;;;5013843;28;20057;-62
2023/04/15 11:35:47;;;;;;;0.20;0.20;;;11.70;99.90;;;;;;5011087;28;20042;-62
2023/04/15 11:38:14;;;;;;;0.08;0.08;;;11.80;99.90;;;;;;5052331;28;20057;-62
2023/04/15 11:40:40;;;;;;;0.10;0.10;;;11.70;99.90;;;;;;5011460;28;20131;-62
2023/04/15 11:43:10;;;;;;;0.10;0.10;;;11.60;99.90;;;;;;5019310;28;20433;-62
2023/04/15 11:45:37;;;;;;;0.38;0.35;;;11.60;99.90;;;;;;5015074;28;20490;-62
2023/04/15 11:48:08;;;;;;;0.00;0.00;;;11.70;99.90;;;;;;5010238;28;20046;-62
2023/04/15 11:50:35;;;;;;;0.25;0.25;;;11.70;99.90;;;;;;5009014;28;20052;-63
2023/04/15 11:53:03;;;;;;;0.10;0.10;;;11.80;99.90;;;;;;5012099;28;20050;-63
2023/04/15 11:55:29;;;;;;;0.10;0.10;;;11.80;99.90;;;;;;5026118;28;20122;-62
2023/04/15 11:58:23;;;;;;;0.10;0.10;;;11.80;99.90;;;;;;5011675;28;20081;-62
2023/04/15 12:00:54;;;;;;;0.05;0.05;;;11.70;99.90;;;;;;5014461;28;20061;-62
2023/04/15 12:03:25;;;;;;;0.10;0.10;;;11.70;99.90;;;;;;5019781;28;20069;-65
2023/04/15 12:06:16;;;;;;;0.10;0.10;;;11.70;99.90;;;;;;5015202;28;20045;-62
2023/04/15 12:09:19;;;;;;;0.95;0.95;;;11.60;99.90;;;;;;5010332;28;20042;-62
2023/04/15 12:11:46;;;;;;;0.10;0.10;;;11.70;99.90;;;;;;5011794;28;20402;-62
2023/04/15 12:14:24;;;;;;;0.32;0.32;;;11.60;99.90;;;;;;5011654;28;20454;-62
2023/04/15 12:16:56;;;;;;;0.00;0.00;;;11.50;99.90;;;;;;5010488;28;20459;-62
2023/04/15 12:19:25;;;;;;;0.10;0.10;;;11.50;99.90;;;;;;5014025;28;20046;-62
2023/04/15 12:21:52;;;;;;;0.05;0.05;;;11.50;99.90;;;;;;5012515;28;20046;-62
2023/04/15 12:24:24;;;;;;;1.13;1.08;;;11.50;99.90;;;;;;5011289;28;20116;-62
2023/04/15 12:26:52;;;;;;;0.10;0.10;;;11.40;99.90;;;;;;5021016;28;20113;-62
2023/04/15 12:29:19;;;;;;;0.10;0.10;;;11.30;99.90;;;;;;5010404;28;20099;-61
2023/04/15 12:31:53;;;;;;;0.10;0.10;;;11.20;99.90;;;;;;5016472;28;20038;-62
2023/04/15 12:34:27;;;;;;;0.10;0.10;;;11.20;99.90;;;;;;5016235;28;20045;-62
2023/04/15 12:36:53;;;;;;;9.95;2.58;;;11.30;99.90;;;;;;5013866;28;20034;-62
2023/04/15 12:39:27;;;;;;;0.20;0.20;;;11.20;99.90;;;;;;5017997;28;20045;-62
2023/04/15 12:41:53;;;;;;;0.10;0.10;;;11.30;99.90;;;;;;5013336;28;20107;-62
2023/04/15 12:44:21;;;;;;;0.15;0.15;;;11.20;99.90;;;;;;5013902;28;20041;-62
2023/04/15 12:46:47;;;;;;;0.10;0.10;;;11.20;99.90;;;;;;5016321;28;20065;-62
2023/04/15 12:49:18;;;;;;;0.10;0.10;;;11.30;99.90;;;;;;5013444;28;20042;-62
2023/04/15 12:51:44;;;;;;;0.10;0.10;;;11.10;99.90;;;;;;5027114;28;20058;-62